createdAt,value
2018-03-19T00:00:49.764Z,1016.02
2018-03-19T00:01:50.341Z,1016.03
2018-03-19T00:02:50.919Z,1016.05
2018-03-19T00:03:51.496Z,1015.99
2018-03-19T00:04:52.081Z,1015.95
2018-03-19T00:05:52.654Z,1015.92
2018-03-19T00:06:53.233Z,1015.99
2018-03-19T00:07:53.811Z,1015.93
2018-03-19T00:08:54.386Z,1015.96
2018-03-19T00:09:54.964Z,1015.96
2018-03-19T00:10:55.542Z,1015.95
2018-03-19T00:11:56.117Z,1015.92
2018-03-19T00:12:56.695Z,1015.94
2018-03-19T00:13:57.323Z,1015.90
2018-03-19T00:14:57.899Z,1015.83
2018-03-19T00:15:58.477Z,1015.96
2018-03-19T00:16:59.055Z,1015.97
2018-03-19T00:17:59.629Z,1015.96
2018-03-19T00:19:00.207Z,1015.91
2018-03-19T00:20:00.783Z,1015.84
2018-03-19T00:21:01.409Z,1015.91
2018-03-19T00:22:01.985Z,1015.87
2018-03-19T00:23:02.613Z,1015.99
2018-03-19T00:24:03.188Z,1015.99
2018-03-19T00:25:03.764Z,1015.89
2018-03-19T00:26:04.340Z,1015.89
2018-03-19T00:27:04.917Z,1015.87
2018-03-19T00:28:05.495Z,1015.97
2018-03-19T00:29:06.071Z,1015.84
2018-03-19T00:30:06.648Z,1015.95
2018-03-19T00:31:07.274Z,1015.89
2018-03-19T00:32:07.852Z,1015.78
2018-03-19T00:33:08.430Z,1015.85
2018-03-19T00:34:09.007Z,1015.86
2018-03-19T00:35:09.585Z,1015.88
2018-03-19T00:36:10.262Z,1015.92
2018-03-19T00:37:10.839Z,1015.90
2018-03-19T00:38:11.415Z,1015.89
2018-03-19T00:39:12.035Z,1015.89
2018-03-19T00:40:12.611Z,1015.94
2018-03-19T00:41:13.291Z,1015.91
2018-03-19T00:42:13.865Z,1015.88
2018-03-19T00:43:14.442Z,1015.89
2018-03-19T00:44:15.021Z,1015.92
2018-03-19T00:45:15.598Z,1016.04
2018-03-19T00:46:16.177Z,1016.00
2018-03-19T00:47:16.812Z,1015.89
2018-03-19T00:48:17.382Z,1015.89
2018-03-19T00:49:17.958Z,1015.92
2018-03-19T00:50:18.533Z,1015.97
2018-03-19T00:51:19.262Z,1015.90
2018-03-19T00:52:19.837Z,1015.95
2018-03-19T00:53:20.416Z,1015.93
2018-03-19T00:54:20.993Z,1015.95
2018-03-19T00:55:21.572Z,1015.86
2018-03-19T00:56:22.149Z,1015.84
2018-03-19T00:57:22.726Z,1015.76
2018-03-19T00:58:23.302Z,1015.82
2018-03-19T00:59:23.879Z,1015.88
2018-03-19T01:00:24.456Z,1015.79
2018-03-19T01:01:25.032Z,1015.81
2018-03-19T01:02:25.609Z,1015.81
2018-03-19T01:03:26.237Z,1015.77
2018-03-19T01:04:26.814Z,1015.74
2018-03-19T01:05:27.392Z,1015.74
2018-03-19T01:06:28.063Z,1015.78
2018-03-19T01:07:28.639Z,1015.77
2018-03-19T01:08:29.217Z,1015.74
2018-03-19T01:09:29.796Z,1015.74
2018-03-19T01:10:30.424Z,1015.71
2018-03-19T01:11:31.001Z,1015.66
2018-03-19T01:12:31.578Z,1015.66
2018-03-19T01:13:32.161Z,1015.64
2018-03-19T01:14:32.735Z,1015.65
2018-03-19T01:15:33.312Z,1015.57
2018-03-19T01:16:33.890Z,1015.55
2018-03-19T01:17:34.467Z,1015.59
2018-03-19T01:18:35.046Z,1015.50
2018-03-19T01:19:35.672Z,1015.55
2018-03-19T01:20:36.251Z,1015.57
2018-03-19T01:21:36.830Z,1015.52
2018-03-19T01:22:37.405Z,1015.54
2018-03-19T01:23:37.985Z,1015.54
2018-03-19T01:24:38.652Z,1015.48
2018-03-19T01:25:39.230Z,1015.53
2018-03-19T01:26:39.809Z,1015.53
2018-03-19T01:27:40.435Z,1015.56
2018-03-19T01:28:41.011Z,1015.47
2018-03-19T01:29:41.586Z,1015.57
2018-03-19T01:30:42.162Z,1015.57
2018-03-19T01:31:42.738Z,1015.60
2018-03-19T01:32:43.312Z,1015.60
2018-03-19T01:33:43.889Z,1015.62
2018-03-19T01:34:44.466Z,1015.65
2018-03-19T01:35:45.043Z,1015.60
2018-03-19T01:36:45.672Z,1015.57
2018-03-19T01:37:46.250Z,1015.67
2018-03-19T01:38:46.877Z,1015.60
2018-03-19T01:39:47.456Z,1015.59
2018-03-19T01:40:48.035Z,1015.53
2018-03-19T01:41:48.662Z,1015.57
2018-03-19T01:42:49.292Z,1015.56
2018-03-19T01:43:49.870Z,1015.63
2018-03-19T01:44:50.446Z,1015.64
2018-03-19T01:45:51.024Z,1015.61
2018-03-19T01:46:51.601Z,1015.70
2018-03-19T01:47:52.182Z,1015.70
2018-03-19T01:48:52.758Z,1015.67
2018-03-19T01:49:53.333Z,1015.66
2018-03-19T01:50:53.913Z,1015.68
2018-03-19T01:51:54.495Z,1015.67
2018-03-19T01:52:55.110Z,1015.56
2018-03-19T01:53:55.686Z,1015.65
2018-03-19T01:54:56.263Z,1015.71
2018-03-19T01:55:56.888Z,1015.69
2018-03-19T01:56:57.464Z,1015.69
2018-03-19T01:57:58.047Z,1015.68
2018-03-19T01:58:58.617Z,1015.73
2018-03-19T01:59:59.245Z,1015.64
2018-03-19T02:01:00.022Z,1015.56
2018-03-19T02:02:00.640Z,1015.65
2018-03-19T02:03:01.218Z,1015.59
2018-03-19T02:04:01.797Z,1015.59
2018-03-19T02:05:02.413Z,1015.48
2018-03-19T02:06:03.034Z,1015.42
2018-03-19T02:07:03.611Z,1015.36
2018-03-19T02:08:04.184Z,1015.38
2018-03-19T02:09:04.761Z,1015.29
2018-03-19T02:10:05.339Z,1015.35
2018-03-19T02:11:05.915Z,1015.27
2018-03-19T02:12:06.493Z,1015.24
2018-03-19T02:13:07.073Z,1015.23
2018-03-19T02:14:07.650Z,1015.26
2018-03-19T02:15:08.280Z,1015.27
2018-03-19T02:16:08.864Z,1015.28
2018-03-19T02:17:09.487Z,1015.27
2018-03-19T02:18:10.064Z,1015.23
2018-03-19T02:19:10.689Z,1015.15
2018-03-19T02:20:11.265Z,1015.17
2018-03-19T02:21:11.843Z,1015.14
2018-03-19T02:22:12.421Z,1015.07
2018-03-19T02:23:12.998Z,1015.17
2018-03-19T02:24:13.624Z,1015.12
2018-03-19T02:25:14.198Z,1015.07
2018-03-19T02:26:14.774Z,1015.02
2018-03-19T02:27:15.351Z,1015.03
2018-03-19T02:28:15.928Z,1015.04
2018-03-19T02:29:16.504Z,1015.00
2018-03-19T02:30:17.086Z,1015.01
2018-03-19T02:31:17.753Z,1014.97
2018-03-19T02:32:18.378Z,1014.96
2018-03-19T02:33:18.958Z,1014.96
2018-03-19T02:34:19.534Z,1014.88
2018-03-19T02:35:20.110Z,1015.04
2018-03-19T02:36:20.693Z,1014.90
2018-03-19T02:37:21.264Z,1014.88
2018-03-19T02:38:21.888Z,1014.89
2018-03-19T02:39:22.467Z,1014.85
2018-03-19T02:40:23.041Z,1014.78
2018-03-19T02:41:23.618Z,1014.80
2018-03-19T02:42:24.200Z,1014.73
2018-03-19T02:43:24.813Z,1014.72
2018-03-19T02:44:25.392Z,1014.68
2018-03-19T02:45:25.970Z,1014.63
2018-03-19T02:46:26.547Z,1014.63
2018-03-19T02:47:27.175Z,1014.55
2018-03-19T02:48:27.796Z,1014.55
2018-03-19T02:49:28.372Z,1014.56
2018-03-19T02:50:28.948Z,1014.66
2018-03-19T02:51:29.575Z,1014.56
2018-03-19T02:52:30.153Z,1014.60
2018-03-19T02:53:30.738Z,1014.50
2018-03-19T02:54:31.311Z,1014.48
2018-03-19T02:55:31.886Z,1014.44
2018-03-19T02:56:32.467Z,1014.50
2018-03-19T02:57:33.133Z,1014.53
2018-03-19T02:58:33.751Z,1014.51
2018-03-19T02:59:34.330Z,1014.45
2018-03-19T03:00:34.911Z,1014.45
2018-03-19T03:01:35.484Z,1014.33
2018-03-19T03:02:36.059Z,1014.35
2018-03-19T03:03:36.637Z,1014.35
2018-03-19T03:04:37.217Z,1014.23
2018-03-19T03:05:37.788Z,1014.30
2018-03-19T03:06:38.363Z,1014.26
2018-03-19T03:07:38.939Z,1014.27
2018-03-19T03:08:39.556Z,1014.29
2018-03-19T03:09:40.224Z,1014.23
2018-03-19T03:10:40.802Z,1014.20
2018-03-19T03:11:41.383Z,1014.28
2018-03-19T03:12:42.004Z,1014.19
2018-03-19T03:13:42.583Z,1014.11
2018-03-19T03:14:43.309Z,1014.22
2018-03-19T03:15:43.888Z,1014.19
2018-03-19T03:16:44.467Z,1014.09
2018-03-19T03:17:45.045Z,1014.07
2018-03-19T03:18:45.621Z,1013.99
2018-03-19T03:19:46.196Z,1014.00
2018-03-19T03:20:46.773Z,1014.00
2018-03-19T03:21:47.349Z,1014.04
2018-03-19T03:22:47.927Z,1013.97
2018-03-19T03:23:48.506Z,1013.91
2018-03-19T03:24:49.084Z,1013.87
2018-03-19T03:25:49.661Z,1013.89
2018-03-19T03:26:50.239Z,1013.80
2018-03-19T03:27:50.866Z,1013.80
2018-03-19T03:28:51.643Z,1013.80
2018-03-19T03:29:52.219Z,1013.87
2018-03-19T03:30:52.797Z,1013.84
2018-03-19T03:31:53.370Z,1013.92
2018-03-19T03:32:53.947Z,1013.93
2018-03-19T03:33:54.522Z,1013.91
2018-03-19T03:34:55.100Z,1013.90
2018-03-19T03:35:55.827Z,1013.85
2018-03-19T03:36:56.405Z,1013.83
2018-03-19T03:37:56.982Z,1013.85
2018-03-19T03:38:57.557Z,1013.76
2018-03-19T03:39:58.136Z,1013.80
2018-03-19T03:40:58.713Z,1013.75
2018-03-19T03:41:59.292Z,1013.71
2018-03-19T03:42:59.906Z,1013.70
2018-03-19T03:44:00.481Z,1013.69
2018-03-19T03:45:01.057Z,1013.70
2018-03-19T03:46:01.683Z,1013.63
2018-03-19T03:47:02.334Z,1013.56
2018-03-19T03:48:02.888Z,1013.59
2018-03-19T03:49:03.463Z,1013.56
2018-03-19T03:50:04.038Z,1013.53
2018-03-19T03:51:04.616Z,1013.51
2018-03-19T03:52:05.195Z,1013.53
2018-03-19T03:53:05.771Z,1013.51
2018-03-19T03:54:06.348Z,1013.48
2018-03-19T03:55:06.925Z,1013.41
2018-03-19T03:56:07.552Z,1013.48
2018-03-19T03:57:08.129Z,1013.39
2018-03-19T03:58:08.704Z,1013.46
2018-03-19T03:59:09.282Z,1013.50
2018-03-19T04:00:09.857Z,1013.36
2018-03-19T04:01:10.436Z,1013.29
2018-03-19T04:02:11.010Z,1013.34
2018-03-19T04:03:11.588Z,1013.30
2018-03-19T04:04:12.163Z,1013.30
2018-03-19T04:05:12.794Z,1013.31
2018-03-19T04:06:13.367Z,1013.21
2018-03-19T04:07:13.943Z,1013.21
2018-03-19T04:08:14.520Z,1013.21
2018-03-19T04:09:15.147Z,1013.14
2018-03-19T04:10:15.774Z,1013.19
2018-03-19T04:11:16.352Z,1013.16
2018-03-19T04:12:16.930Z,1013.09
2018-03-19T04:13:17.507Z,1013.07
2018-03-19T04:14:18.134Z,1013.02
2018-03-19T04:15:18.711Z,1012.99
2018-03-19T04:16:19.290Z,1013.04
2018-03-19T04:17:19.867Z,1013.01
2018-03-19T04:18:20.444Z,1012.95
2018-03-19T04:19:21.021Z,1012.94
2018-03-19T04:20:21.677Z,1012.88
2018-03-19T04:21:22.223Z,1012.89
2018-03-19T04:22:22.798Z,1012.89
2018-03-19T04:23:23.376Z,1012.88
2018-03-19T04:24:24.102Z,1012.79
2018-03-19T04:25:24.677Z,1012.78
2018-03-19T04:26:25.253Z,1012.80
2018-03-19T04:27:25.829Z,1012.82
2018-03-19T04:28:26.403Z,1012.78
2018-03-19T04:29:26.978Z,1012.71
2018-03-19T04:30:27.555Z,1012.74
2018-03-19T04:31:28.127Z,1012.77
2018-03-19T04:32:28.703Z,1012.71
2018-03-19T04:33:29.278Z,1012.70
2018-03-19T04:34:29.854Z,1012.68
2018-03-19T04:35:30.481Z,1012.71
2018-03-19T04:36:31.056Z,1012.70
2018-03-19T04:37:31.683Z,1012.71
2018-03-19T04:38:32.259Z,1012.70
2018-03-19T04:39:32.837Z,1012.66
2018-03-19T04:40:33.415Z,1012.64
2018-03-19T04:41:34.034Z,1012.63
2018-03-19T04:42:34.613Z,1012.65
2018-03-19T04:43:35.191Z,1012.59
2018-03-19T04:44:35.765Z,1012.59
2018-03-19T04:45:36.340Z,1012.58
2018-03-19T04:46:36.967Z,1012.62
2018-03-19T04:47:37.548Z,1012.53
2018-03-19T04:48:38.122Z,1012.44
2018-03-19T04:49:38.702Z,1012.50
2018-03-19T04:50:39.423Z,1012.51
2018-03-19T04:51:45.051Z,1012.55
2018-03-19T04:52:45.627Z,1012.56
2018-03-19T04:53:46.203Z,1012.50
2018-03-19T04:54:46.928Z,1012.48
2018-03-19T04:55:47.504Z,1012.48
2018-03-19T04:56:48.084Z,1012.42
2018-03-19T04:57:48.745Z,1012.38
2018-03-19T04:58:49.272Z,1012.50
2018-03-19T04:59:49.852Z,1012.51
2018-03-19T05:00:50.429Z,1012.43
2018-03-19T05:01:51.008Z,1012.48
2018-03-19T05:02:51.584Z,1012.51
2018-03-19T05:03:52.160Z,1012.51
2018-03-19T05:04:52.736Z,1012.45
2018-03-19T05:05:53.310Z,1012.40
2018-03-19T05:06:53.942Z,1012.44
2018-03-19T05:07:54.559Z,1012.44
2018-03-19T05:08:55.180Z,1012.43
2018-03-19T05:09:55.835Z,1012.52
2018-03-19T05:10:56.378Z,1012.40
2018-03-19T05:11:57.004Z,1012.45
2018-03-19T05:12:57.579Z,1012.36
2018-03-19T05:13:58.208Z,1012.36
2018-03-19T05:14:58.780Z,1012.43
2018-03-19T05:15:59.405Z,1012.31
2018-03-19T05:16:59.982Z,1012.32
2018-03-19T05:18:00.560Z,1012.36
2018-03-19T05:19:01.168Z,1012.34
2018-03-19T05:20:01.719Z,1012.35
2018-03-19T05:21:02.299Z,1012.31
2018-03-19T05:22:02.866Z,1012.18
2018-03-19T05:23:03.445Z,1012.21
2018-03-19T05:24:04.018Z,1012.20
2018-03-19T05:25:04.644Z,1012.24
2018-03-19T05:26:05.221Z,1012.22
2018-03-19T05:27:05.797Z,1012.23
2018-03-19T05:28:06.373Z,1012.19
2018-03-19T05:29:06.997Z,1012.14
2018-03-19T05:30:07.574Z,1012.09
2018-03-19T05:31:08.151Z,1012.19
2018-03-19T05:32:08.777Z,1012.04
2018-03-19T05:33:09.385Z,1012.02
2018-03-19T05:34:09.929Z,1012.07
2018-03-19T05:35:10.504Z,1012.01
2018-03-19T05:36:11.083Z,1011.96
2018-03-19T05:37:11.700Z,1011.96
2018-03-19T05:38:12.277Z,1011.94
2018-03-19T05:39:12.855Z,1012.00
2018-03-19T05:40:13.483Z,1011.92
2018-03-19T05:41:14.060Z,1011.90
2018-03-19T05:42:14.691Z,1011.97
2018-03-19T05:43:15.266Z,1011.89
2018-03-19T05:44:15.840Z,1011.89
2018-03-19T05:45:16.466Z,1011.94
2018-03-19T05:46:17.046Z,1011.90
2018-03-19T05:47:17.629Z,1012.02
2018-03-19T05:48:18.244Z,1011.91
2018-03-19T05:49:18.820Z,1011.93
2018-03-19T05:50:19.545Z,1011.92
2018-03-19T05:51:20.120Z,1011.91
2018-03-19T05:52:20.696Z,1011.86
2018-03-19T05:53:21.271Z,1011.89
2018-03-19T05:54:21.846Z,1011.93
2018-03-19T05:55:22.428Z,1011.95
2018-03-19T05:56:23.043Z,1011.87
2018-03-19T05:57:23.619Z,1011.85
2018-03-19T05:58:24.196Z,1011.92
2018-03-19T05:59:24.773Z,1011.91
2018-03-19T06:00:25.400Z,1011.81
2018-03-19T06:01:25.976Z,1011.84
2018-03-19T06:02:27.004Z,1011.85
2018-03-19T06:03:32.632Z,1011.92
2018-03-19T06:04:33.250Z,1011.81
2018-03-19T06:05:33.827Z,1011.77
2018-03-19T06:06:34.402Z,1011.77
2018-03-19T06:07:34.978Z,1011.73
2018-03-19T06:08:35.552Z,1011.81
2018-03-19T06:09:36.181Z,1011.86
2018-03-19T06:10:36.757Z,1011.86
2018-03-19T06:11:37.336Z,1011.82
2018-03-19T06:12:37.915Z,1011.88
2018-03-19T06:13:38.532Z,1011.89
2018-03-19T06:14:39.110Z,1011.96
2018-03-19T06:15:39.689Z,1011.90
2018-03-19T06:16:40.260Z,1011.92
2018-03-19T06:17:40.884Z,1011.87
2018-03-19T06:18:41.467Z,1011.82
2018-03-19T06:19:42.040Z,1011.91
2018-03-19T06:20:42.615Z,1011.88
2018-03-19T06:21:43.194Z,1011.85
2018-03-19T06:22:43.771Z,1011.86
2018-03-19T06:23:44.346Z,1011.87
2018-03-19T06:24:44.922Z,1011.82
2018-03-19T06:25:45.498Z,1011.83
2018-03-19T06:26:46.127Z,1011.92
2018-03-19T06:27:46.753Z,1011.90
2018-03-19T06:28:47.331Z,1011.89
2018-03-19T06:29:47.908Z,1011.91
2018-03-19T06:30:48.534Z,1012.00
2018-03-19T06:31:49.307Z,1012.00
2018-03-19T06:32:49.884Z,1012.03
2018-03-19T06:33:50.471Z,1011.94
2018-03-19T06:34:51.074Z,1011.96
2018-03-19T06:35:51.652Z,1012.04
2018-03-19T06:36:52.227Z,1012.00
2018-03-19T06:37:52.804Z,1012.06
2018-03-19T06:38:53.381Z,1012.06
2018-03-19T06:39:53.958Z,1012.04
2018-03-19T06:40:54.591Z,1012.07
2018-03-19T06:41:55.157Z,1012.10
2018-03-19T06:42:55.734Z,1012.07
2018-03-19T06:43:56.309Z,1012.15
2018-03-19T06:44:56.887Z,1012.26
2018-03-19T06:45:57.461Z,1012.22
2018-03-19T06:46:58.037Z,1012.17
2018-03-19T06:47:58.664Z,1012.12
2018-03-19T06:48:59.240Z,1012.02
2018-03-19T06:49:59.818Z,1012.06
2018-03-19T06:51:00.447Z,1012.02
2018-03-19T06:52:01.023Z,1011.98
2018-03-19T06:53:01.599Z,1012.06
2018-03-19T06:54:02.175Z,1012.12
2018-03-19T06:55:02.761Z,1012.06
2018-03-19T06:56:03.336Z,1012.07
2018-03-19T06:57:03.912Z,1012.04
2018-03-19T06:58:04.487Z,1012.01
2018-03-19T06:59:05.064Z,1012.00
2018-03-19T07:00:05.689Z,1011.99
2018-03-19T07:01:06.265Z,1012.07
2018-03-19T07:02:06.841Z,1012.03
2018-03-19T07:03:07.471Z,1012.09
2018-03-19T07:04:08.042Z,1012.10
2018-03-19T07:05:08.616Z,1011.98
2018-03-19T07:06:09.191Z,1012.05
2018-03-19T07:07:09.766Z,1012.11
2018-03-19T07:08:10.343Z,1012.04
2018-03-19T07:09:10.922Z,1011.89
2018-03-19T07:10:11.499Z,1011.95
2018-03-19T07:11:12.134Z,1011.89
2018-03-19T07:12:12.743Z,1011.94
2018-03-19T07:13:13.318Z,1011.96
2018-03-19T07:14:13.891Z,1012.00
2018-03-19T07:15:14.516Z,1012.00
2018-03-19T07:16:15.095Z,1011.90
2018-03-19T07:17:15.726Z,1012.03
2018-03-19T07:18:16.256Z,1011.94
2018-03-19T07:19:16.825Z,1012.01
2018-03-19T07:20:17.449Z,1012.02
2018-03-19T07:21:18.027Z,1011.99
2018-03-19T07:22:18.604Z,1011.99
2018-03-19T07:23:19.184Z,1012.17
2018-03-19T07:24:19.757Z,1012.12
2018-03-19T07:25:20.484Z,1012.16
2018-03-19T07:26:21.112Z,1012.17
2018-03-19T07:27:21.774Z,1012.23
2018-03-19T07:28:22.307Z,1012.21
2018-03-19T07:29:22.884Z,1012.17
2018-03-19T07:30:23.512Z,1012.28
2018-03-19T07:31:24.090Z,1012.28
2018-03-19T07:32:24.666Z,1012.24
2018-03-19T07:33:25.242Z,1012.25
2018-03-19T07:34:25.818Z,1012.23
2018-03-19T07:35:26.393Z,1012.27
2018-03-19T07:36:26.969Z,1012.31
2018-03-19T07:37:27.608Z,1012.36
2018-03-19T07:38:28.122Z,1012.36
2018-03-19T07:39:28.739Z,1012.34
2018-03-19T07:40:29.315Z,1012.26
2018-03-19T07:41:29.891Z,1012.30
2018-03-19T07:42:30.517Z,1012.26
2018-03-19T07:43:31.143Z,1012.31
2018-03-19T07:44:31.719Z,1012.29
2018-03-19T07:45:32.295Z,1012.29
2018-03-19T07:46:32.920Z,1012.35
2018-03-19T07:47:33.498Z,1012.36
2018-03-19T07:48:34.088Z,1012.36
2018-03-19T07:49:34.652Z,1012.42
2018-03-19T07:50:35.229Z,1012.35
2018-03-19T07:51:35.806Z,1012.39
2018-03-19T07:52:36.432Z,1012.28
2018-03-19T07:53:37.011Z,1012.28
2018-03-19T07:54:37.587Z,1012.33
2018-03-19T07:55:38.164Z,1012.30
2018-03-19T07:56:38.740Z,1012.44
2018-03-19T07:57:39.320Z,1012.45
2018-03-19T07:58:39.896Z,1012.34
2018-03-19T07:59:40.520Z,1012.39
2018-03-19T08:00:41.147Z,1012.40
2018-03-19T08:01:41.723Z,1012.38
2018-03-19T08:02:42.301Z,1012.36
2018-03-19T08:03:42.876Z,1012.41
2018-03-19T08:04:43.454Z,1012.32
2018-03-19T08:05:44.047Z,1012.28
2018-03-19T08:06:44.607Z,1012.30
2018-03-19T08:07:45.185Z,1012.25
2018-03-19T08:08:45.910Z,1012.30
2018-03-19T08:09:46.486Z,1012.41
2018-03-19T08:10:47.063Z,1012.44
2018-03-19T08:11:47.639Z,1012.42
2018-03-19T08:12:48.218Z,1012.30
2018-03-19T08:13:48.797Z,1012.41
2018-03-19T08:14:49.373Z,1012.42
2018-03-19T08:15:49.950Z,1012.41
2018-03-19T08:16:50.525Z,1012.41
2018-03-19T08:17:51.100Z,1012.38
2018-03-19T08:18:51.677Z,1012.46
2018-03-19T08:19:52.303Z,1012.51
2018-03-19T08:20:52.930Z,1012.45
2018-03-19T08:21:53.505Z,1012.44
2018-03-19T08:22:54.082Z,1012.39
2018-03-19T08:23:54.657Z,1012.51
2018-03-19T08:24:55.232Z,1012.44
2018-03-19T08:25:55.867Z,1012.50
2018-03-19T08:26:56.473Z,1012.47
2018-03-19T08:27:57.050Z,1012.46
2018-03-19T08:28:57.628Z,1012.51
2018-03-19T08:29:58.204Z,1012.52
2018-03-19T08:30:58.779Z,1012.56
2018-03-19T08:31:59.410Z,1012.63
2018-03-19T08:32:59.931Z,1012.70
2018-03-19T08:34:00.509Z,1012.63
2018-03-19T08:35:01.088Z,1012.63
2018-03-19T08:36:01.714Z,1012.71
2018-03-19T08:37:02.292Z,1012.69
2018-03-19T08:38:02.911Z,1012.61
2018-03-19T08:39:03.488Z,1012.61
2018-03-19T08:40:04.065Z,1012.77
2018-03-19T08:41:04.642Z,1012.71
2018-03-19T08:42:05.220Z,1012.69
2018-03-19T08:43:05.847Z,1012.71
2018-03-19T08:44:06.426Z,1012.81
2018-03-19T08:45:06.999Z,1012.77
2018-03-19T08:46:07.577Z,1012.78
2018-03-19T08:47:08.152Z,1012.82
2018-03-19T08:48:08.728Z,1012.86
2018-03-19T08:49:09.306Z,1012.93
2018-03-19T08:50:09.884Z,1012.85
2018-03-19T08:51:10.464Z,1012.86
2018-03-19T08:52:11.092Z,1013.07
2018-03-19T08:53:11.762Z,1013.35
2018-03-19T08:54:12.338Z,1013.33
2018-03-19T08:55:12.913Z,1013.35
2018-03-19T08:56:13.488Z,1013.32
2018-03-19T08:57:14.114Z,1013.24
2018-03-19T08:58:14.690Z,1013.16
2018-03-19T08:59:15.267Z,1013.28
2018-03-19T09:00:15.851Z,1013.21
2018-03-19T09:01:16.427Z,1013.25
2018-03-19T09:02:17.054Z,1013.21
2018-03-19T09:03:17.631Z,1013.21
2018-03-19T09:04:18.218Z,1013.22
2018-03-19T09:05:18.796Z,1013.27
2018-03-19T09:06:19.359Z,1013.34
2018-03-19T09:07:19.944Z,1013.23
2018-03-19T09:08:20.512Z,1013.23
2018-03-19T09:09:21.237Z,1013.31
2018-03-19T09:10:21.812Z,1013.29
2018-03-19T09:11:22.438Z,1013.35
2018-03-19T09:12:23.016Z,1013.34
2018-03-19T09:13:23.593Z,1013.37
2018-03-19T09:14:24.170Z,1013.34
2018-03-19T09:15:24.747Z,1013.36
2018-03-19T09:16:25.323Z,1013.41
2018-03-19T09:17:25.900Z,1013.39
2018-03-19T09:18:26.474Z,1013.31
2018-03-19T09:19:27.051Z,1013.38
2018-03-19T09:20:27.680Z,1013.32
2018-03-19T09:21:28.255Z,1013.42
2018-03-19T09:22:28.882Z,1013.33
2018-03-19T09:23:29.460Z,1013.39
2018-03-19T09:24:30.042Z,1013.38
2018-03-19T09:25:30.614Z,1013.38
2018-03-19T09:26:31.244Z,1013.44
2018-03-19T09:27:31.819Z,1013.41
2018-03-19T09:28:32.444Z,1013.43
2018-03-19T09:29:33.028Z,1013.44
2018-03-19T09:30:33.604Z,1013.44
2018-03-19T09:31:34.220Z,1013.43
2018-03-19T09:32:34.796Z,1013.47
2018-03-19T09:33:35.375Z,1013.47
2018-03-19T09:34:35.949Z,1013.47
2018-03-19T09:35:36.527Z,1013.49
2018-03-19T09:36:37.145Z,1013.51
2018-03-19T09:37:37.679Z,1013.62
2018-03-19T09:38:38.255Z,1013.55
2018-03-19T09:39:38.830Z,1013.63
2018-03-19T09:40:39.408Z,1013.60
2018-03-19T09:41:40.149Z,1013.61
2018-03-19T09:42:40.895Z,1013.53
2018-03-19T09:43:41.471Z,1013.55
2018-03-19T09:44:42.049Z,1013.62
2018-03-19T09:45:42.673Z,1013.58
2018-03-19T09:46:43.250Z,1013.61
2018-03-19T09:47:43.832Z,1013.72
2018-03-19T09:48:44.403Z,1013.64
2018-03-19T09:49:44.981Z,1013.66
2018-03-19T09:50:45.599Z,1013.72
2018-03-19T09:51:46.175Z,1013.69
2018-03-19T09:52:46.750Z,1013.58
2018-03-19T09:53:47.326Z,1013.70
2018-03-19T09:54:47.908Z,1013.71
2018-03-19T09:55:48.524Z,1013.60
2018-03-19T09:56:49.104Z,1013.71
2018-03-19T09:57:49.679Z,1013.67
2018-03-19T09:58:50.256Z,1013.68
2018-03-19T09:59:50.834Z,1013.60
2018-03-19T10:00:51.609Z,1013.77
2018-03-19T10:01:52.243Z,1013.82
2018-03-19T10:02:52.816Z,1013.75
2018-03-19T10:03:53.391Z,1013.87
2018-03-19T10:04:53.969Z,1013.81
2018-03-19T10:05:54.596Z,1013.80
2018-03-19T10:06:55.175Z,1013.86
2018-03-19T10:07:55.749Z,1013.93
2018-03-19T10:08:56.323Z,1013.80
2018-03-19T10:09:56.898Z,1013.93
2018-03-19T10:10:57.475Z,1013.98
2018-03-19T10:11:58.055Z,1013.95
2018-03-19T10:12:58.625Z,1013.94
2018-03-19T10:13:59.202Z,1013.94
2018-03-19T10:14:59.782Z,1014.05
2018-03-19T10:16:00.360Z,1014.00
2018-03-19T10:17:00.939Z,1013.94
2018-03-19T10:18:01.518Z,1014.00
2018-03-19T10:19:02.143Z,1014.11
2018-03-19T10:20:02.772Z,1014.07
2018-03-19T10:21:03.347Z,1014.14
2018-03-19T10:22:03.924Z,1014.07
2018-03-19T10:23:04.498Z,1014.14
2018-03-19T10:24:05.076Z,1014.12
2018-03-19T10:25:05.654Z,1014.17
2018-03-19T10:26:06.282Z,1014.23
2018-03-19T10:27:06.858Z,1014.17
2018-03-19T10:28:07.435Z,1014.14
2018-03-19T10:29:08.012Z,1014.08
2018-03-19T10:30:08.591Z,1014.02
2018-03-19T10:31:09.218Z,1014.06
2018-03-19T10:32:09.794Z,1014.11
2018-03-19T10:33:10.372Z,1014.19
2018-03-19T10:34:10.981Z,1014.29
2018-03-19T10:35:11.527Z,1014.31
2018-03-19T10:36:12.153Z,1014.27
2018-03-19T10:37:12.730Z,1014.15
2018-03-19T10:38:13.304Z,1014.28
2018-03-19T10:39:13.880Z,1014.16
2018-03-19T10:40:14.506Z,1014.16
2018-03-19T10:41:15.133Z,1014.22
2018-03-19T10:42:15.708Z,1014.29
2018-03-19T10:43:16.283Z,1014.27
2018-03-19T10:44:16.860Z,1014.30
2018-03-19T10:45:17.437Z,1014.38
2018-03-19T10:46:18.018Z,1014.42
2018-03-19T10:47:18.594Z,1014.50
2018-03-19T10:48:19.171Z,1014.42
2018-03-19T10:49:19.800Z,1014.47
2018-03-19T10:50:20.380Z,1014.38
2018-03-19T10:51:21.008Z,1014.36
2018-03-19T10:52:21.584Z,1014.34
2018-03-19T10:53:22.174Z,1014.41
2018-03-19T10:54:22.749Z,1014.41
2018-03-19T10:55:23.321Z,1014.44
2018-03-19T10:56:23.896Z,1014.42
2018-03-19T10:57:24.475Z,1014.51
2018-03-19T10:58:25.101Z,1014.46
2018-03-19T10:59:25.681Z,1014.42
2018-03-19T11:00:26.258Z,1014.51
2018-03-19T11:01:26.891Z,1014.47
2018-03-19T11:02:27.413Z,1014.41
2018-03-19T11:03:28.033Z,1014.55
2018-03-19T11:04:28.654Z,1014.45
2018-03-19T11:05:29.230Z,1014.46
2018-03-19T11:06:29.807Z,1014.55
2018-03-19T11:07:30.384Z,1014.47
2018-03-19T11:08:31.111Z,1014.46
2018-03-19T11:09:31.737Z,1014.51
2018-03-19T11:10:32.318Z,1014.49
2018-03-19T11:11:32.897Z,1014.54
2018-03-19T11:12:33.473Z,1014.64
2018-03-19T11:13:34.047Z,1014.51
2018-03-19T11:14:34.676Z,1014.66
2018-03-19T11:15:35.254Z,1014.71
2018-03-19T11:16:35.829Z,1014.62
2018-03-19T11:17:36.408Z,1014.80
2018-03-19T11:18:36.986Z,1014.80
2018-03-19T11:19:37.613Z,1014.87
2018-03-19T11:20:38.222Z,1014.76
2018-03-19T11:21:38.773Z,1014.88
2018-03-19T11:22:39.343Z,1014.91
2018-03-19T11:23:40.069Z,1014.80
2018-03-19T11:24:40.645Z,1014.81
2018-03-19T11:25:41.222Z,1014.87
2018-03-19T11:26:41.799Z,1014.98
2018-03-19T11:27:42.426Z,1015.02
2018-03-19T11:28:43.003Z,1015.11
2018-03-19T11:29:43.581Z,1015.06
2018-03-19T11:30:44.158Z,1015.03
2018-03-19T11:31:44.776Z,1015.05
2018-03-19T11:32:45.353Z,1015.04
2018-03-19T11:33:45.933Z,1014.99
2018-03-19T11:34:46.508Z,1015.18
2018-03-19T11:35:47.084Z,1015.06
2018-03-19T11:36:47.711Z,1015.02
2018-03-19T11:37:48.286Z,1015.13
2018-03-19T11:38:48.861Z,1015.08
2018-03-19T11:39:49.487Z,1015.15
2018-03-19T11:40:50.063Z,1015.19
2018-03-19T11:41:50.720Z,1015.11
2018-03-19T11:42:51.214Z,1015.27
2018-03-19T11:43:51.792Z,1015.23
2018-03-19T11:44:52.419Z,1015.20
2018-03-19T11:45:52.992Z,1015.26
2018-03-19T11:46:53.619Z,1015.09
2018-03-19T11:47:54.194Z,1015.20
2018-03-19T11:48:54.773Z,1015.20
2018-03-19T11:49:55.349Z,1015.15
2018-03-19T11:50:55.923Z,1015.21
2018-03-19T11:51:56.550Z,1015.21
2018-03-19T11:52:57.127Z,1015.23
2018-03-19T11:53:57.708Z,1015.28
2018-03-19T11:54:58.322Z,1015.24
2018-03-19T11:55:58.902Z,1015.27
2018-03-19T11:56:59.477Z,1015.24
2018-03-19T11:58:00.107Z,1015.27
2018-03-19T11:59:00.686Z,1015.27
2018-03-19T12:00:01.266Z,1015.24
2018-03-19T12:01:01.842Z,1015.25
2018-03-19T12:02:02.422Z,1015.25
2018-03-19T12:03:03.038Z,1015.29
2018-03-19T12:04:03.766Z,1015.33
2018-03-19T12:05:04.346Z,1015.32
2018-03-19T12:06:05.073Z,1015.35
2018-03-19T12:07:05.652Z,1015.29
2018-03-19T12:08:06.230Z,1015.29
2018-03-19T12:09:06.807Z,1015.28
2018-03-19T12:10:07.391Z,1015.25
2018-03-19T12:11:08.006Z,1015.35
2018-03-19T12:12:08.581Z,1015.34
2018-03-19T12:13:09.157Z,1015.26